Malton, United Kingdom
Current Conditions -  °F | °C
As of 2:50 PM on Friday 28 Nov 2014 (Local Time) from EGXU Reporting Station
Drizzle Drizzle  
Wind Chill: 52°   Ceiling: 700
Heat Index: 52°   Visibility: 4mi
Dew Point: 50°   Wind: 8mph
Humidity: 94%   Direction: 70°ENE
Pressure: 29.74"   Gusts: NA
Location:  54.13°N, 0.8°W
Report Text: EGXU 281450Z 07007KT 6000 -DZ BKN007 OVC020 11/10 Q1007 GRN TEMPO 4000 BKN005 YLO1
Loading
Personal Weather Stations






























Interactive Weather Map New forecast layout! Learn more

10-Day Weather Forecast

Advertisements
Track Severe Weather on mobile